createdAt,value
2022-10-16T00:01:14.710Z,99.90
2022-10-16T00:03:42.995Z,99.90
2022-10-16T00:06:11.091Z,99.90
2022-10-16T00:08:38.495Z,99.90
2022-10-16T00:11:06.839Z,99.90
2022-10-16T00:13:34.819Z,99.90
2022-10-16T00:16:02.557Z,99.90
2022-10-16T00:18:30.518Z,99.90
2022-10-16T00:21:03.507Z,99.90
2022-10-16T00:23:30.197Z,99.90
2022-10-16T00:25:59.009Z,99.90
2022-10-16T00:28:25.808Z,99.90
2022-10-16T00:30:52.750Z,99.90
2022-10-16T00:33:19.798Z,99.90
2022-10-16T00:35:47.006Z,99.90
2022-10-16T00:38:13.623Z,99.90
2022-10-16T00:40:40.514Z,99.90
2022-10-16T00:43:34.953Z,99.90
2022-10-16T00:46:10.495Z,99.90
2022-10-16T00:48:37.352Z,99.90
2022-10-16T00:51:05.534Z,99.90
2022-10-16T00:53:32.228Z,99.90
2022-10-16T00:55:58.845Z,99.90
2022-10-16T00:58:25.602Z,99.90
2022-10-16T01:00:52.206Z,99.90
2022-10-16T01:03:36.683Z,99.90
2022-10-16T01:06:15.585Z,99.90
2022-10-16T01:08:49.260Z,99.90
2022-10-16T01:11:23.026Z,99.90
2022-10-16T01:13:59.291Z,99.90
2022-10-16T01:16:39.918Z,99.90
2022-10-16T01:19:14.978Z,99.90
2022-10-16T01:21:45.487Z,99.90
2022-10-16T01:24:18.887Z,99.90
2022-10-16T01:27:11.701Z,99.90
2022-10-16T01:29:41.317Z,99.90
2022-10-16T01:32:19.534Z,99.90
2022-10-16T01:34:51.971Z,99.90
2022-10-16T01:37:30.521Z,99.90
2022-10-16T01:40:01.782Z,99.90
2022-10-16T01:42:35.446Z,99.90
2022-10-16T01:45:03.900Z,99.90
2022-10-16T01:47:32.230Z,99.90
2022-10-16T01:50:00.763Z,99.90
2022-10-16T01:52:29.869Z,99.90
2022-10-16T01:54:59.197Z,99.90
2022-10-16T01:57:26.938Z,99.90
2022-10-16T01:59:57.372Z,99.90
2022-10-16T02:02:26.976Z,99.90
2022-10-16T02:04:59.038Z,99.90
2022-10-16T02:07:25.947Z,99.90
2022-10-16T02:09:52.578Z,99.90
2022-10-16T02:12:29.369Z,99.90
2022-10-16T02:14:56.384Z,99.90
2022-10-16T02:17:23.829Z,99.90
2022-10-16T02:19:54.074Z,99.90
2022-10-16T02:22:27.084Z,99.90
2022-10-16T02:25:06.992Z,99.90
2022-10-16T02:27:41.380Z,99.90
2022-10-16T02:30:22.694Z,99.90
2022-10-16T02:32:50.265Z,99.90
2022-10-16T02:35:19.698Z,99.90
2022-10-16T02:37:47.821Z,99.90
2022-10-16T02:40:15.441Z,99.90
2022-10-16T02:42:42.519Z,99.90
2022-10-16T02:45:10.971Z,99.90
2022-10-16T02:47:38.141Z,99.90
2022-10-16T02:50:05.560Z,99.90
2022-10-16T02:52:32.383Z,99.90
2022-10-16T02:54:58.977Z,99.90
2022-10-16T02:57:25.919Z,99.90
2022-10-16T02:59:53.052Z,99.90
2022-10-16T03:02:19.746Z,99.90
2022-10-16T03:04:46.403Z,99.90
2022-10-16T03:07:13.188Z,99.90
2022-10-16T03:09:39.793Z,99.90
2022-10-16T03:12:06.395Z,99.90
2022-10-16T03:14:33.130Z,99.90
2022-10-16T03:16:59.746Z,99.90
2022-10-16T03:19:26.352Z,99.90
2022-10-16T03:21:52.934Z,99.90
2022-10-16T03:24:19.568Z,99.90
2022-10-16T03:26:46.155Z,99.90
2022-10-16T03:29:12.790Z,99.90
2022-10-16T03:31:39.382Z,99.90
2022-10-16T03:34:06.011Z,99.90
2022-10-16T03:36:32.649Z,99.90
2022-10-16T03:38:59.310Z,99.90
2022-10-16T03:41:25.945Z,99.90
2022-10-16T03:43:52.549Z,99.90
2022-10-16T03:46:19.167Z,99.90
2022-10-16T03:48:45.783Z,99.90
2022-10-16T03:51:12.358Z,99.90
2022-10-16T03:53:38.960Z,99.90
2022-10-16T03:56:05.853Z,99.90
2022-10-16T03:58:32.464Z,99.90
2022-10-16T04:00:59.146Z,99.90
2022-10-16T04:03:25.874Z,99.90
2022-10-16T04:05:52.526Z,99.90
2022-10-16T04:08:19.367Z,99.90
2022-10-16T04:10:46.034Z,99.90
2022-10-16T04:13:13.283Z,99.90
2022-10-16T04:15:39.934Z,99.90
2022-10-16T04:18:06.994Z,99.90
2022-10-16T04:20:34.392Z,99.90
2022-10-16T04:23:01.345Z,99.90
2022-10-16T04:25:27.933Z,99.90
2022-10-16T04:27:55.101Z,99.90
2022-10-16T04:30:22.497Z,99.90
2022-10-16T04:32:51.048Z,99.90
2022-10-16T04:35:19.019Z,99.90
2022-10-16T04:37:45.634Z,99.90
2022-10-16T04:40:12.734Z,99.90
2022-10-16T04:42:39.437Z,99.90
2022-10-16T04:45:06.907Z,99.90
2022-10-16T04:47:33.489Z,99.90
2022-10-16T04:50:03.407Z,99.90
2022-10-16T04:52:30.354Z,99.90
2022-10-16T04:55:01.398Z,99.90
2022-10-16T04:57:28.521Z,99.90
2022-10-16T04:59:55.368Z,99.90
2022-10-16T05:02:22.171Z,99.90
2022-10-16T05:04:48.786Z,99.90
2022-10-16T05:07:15.392Z,99.90
2022-10-16T05:09:42.121Z,99.90
2022-10-16T05:12:08.731Z,99.90
2022-10-16T05:14:35.352Z,99.90
2022-10-16T05:17:02.105Z,99.90
2022-10-16T05:19:29.132Z,99.90
2022-10-16T05:21:56.266Z,99.90
2022-10-16T05:24:23.120Z,99.90
2022-10-16T05:26:50.475Z,99.90
2022-10-16T05:29:17.227Z,99.90
2022-10-16T05:31:43.883Z,99.90
2022-10-16T05:34:10.538Z,99.90
2022-10-16T05:36:37.309Z,99.90
2022-10-16T05:39:04.440Z,99.90
2022-10-16T05:41:31.050Z,99.90
2022-10-16T05:43:57.749Z,99.90
2022-10-16T05:46:24.400Z,99.90
2022-10-16T05:48:54.218Z,99.90
2022-10-16T05:51:20.838Z,99.90
2022-10-16T05:53:47.547Z,99.90
2022-10-16T05:56:14.321Z,99.90
2022-10-16T05:58:45.199Z,99.90
2022-10-16T06:01:18.153Z,99.90
2022-10-16T06:03:45.534Z,99.90
2022-10-16T06:06:14.494Z,99.90
2022-10-16T06:08:42.421Z,99.90
2022-10-16T06:11:11.783Z,99.90
2022-10-16T06:13:39.855Z,99.90
2022-10-16T06:16:07.023Z,99.90
2022-10-16T06:18:33.636Z,99.90
2022-10-16T06:21:00.333Z,99.90
2022-10-16T06:23:29.512Z,99.90
2022-10-16T06:26:12.608Z,99.90
2022-10-16T06:28:40.007Z,99.90
2022-10-16T06:31:08.796Z,99.90
2022-10-16T06:33:36.563Z,99.90
2022-10-16T06:36:05.821Z,99.90
2022-10-16T06:38:33.206Z,99.90
2022-10-16T06:40:59.989Z,99.90
2022-10-16T06:43:27.448Z,99.90
2022-10-16T06:45:58.000Z,99.90
2022-10-16T06:48:25.446Z,99.90
2022-10-16T06:51:09.430Z,99.90
2022-10-16T06:53:39.887Z,99.90
2022-10-16T06:56:19.694Z,99.90
2022-10-16T06:58:47.054Z,99.90
2022-10-16T07:01:14.743Z,99.90
2022-10-16T07:03:42.851Z,99.90
2022-10-16T07:06:11.647Z,99.90
2022-10-16T07:08:40.420Z,99.90
2022-10-16T07:11:09.832Z,99.90
2022-10-16T07:13:37.659Z,99.90
2022-10-16T07:16:16.356Z,99.90
2022-10-16T07:18:46.128Z,99.90
2022-10-16T07:21:21.536Z,99.90
2022-10-16T07:23:55.894Z,99.90
2022-10-16T07:26:23.328Z,99.90
2022-10-16T07:28:50.544Z,99.90
2022-10-16T07:31:19.819Z,99.90
2022-10-16T07:33:48.781Z,99.90
2022-10-16T07:36:17.761Z,99.90
2022-10-16T07:38:45.373Z,99.90
2022-10-16T07:41:14.395Z,99.90
2022-10-16T07:43:41.262Z,99.90
2022-10-16T07:46:08.089Z,99.90
2022-10-16T07:48:35.907Z,99.90
2022-10-16T07:51:07.214Z,99.90
2022-10-16T07:53:34.819Z,99.90
2022-10-16T07:56:06.783Z,99.90
2022-10-16T07:58:34.951Z,99.90
2022-10-16T08:01:06.035Z,99.90
2022-10-16T08:03:32.831Z,99.90
2022-10-16T08:06:00.365Z,99.90
2022-10-16T08:08:27.804Z,99.90
2022-10-16T08:10:55.231Z,99.90
2022-10-16T08:13:22.345Z,99.90
2022-10-16T08:15:48.983Z,99.90
2022-10-16T08:18:16.018Z,99.90
2022-10-16T08:20:43.508Z,99.90
2022-10-16T08:23:12.199Z,99.90
2022-10-16T08:25:39.343Z,99.90
2022-10-16T08:28:07.787Z,99.90
2022-10-16T08:30:34.984Z,99.90
2022-10-16T08:33:02.353Z,99.90
2022-10-16T08:35:29.197Z,99.90
2022-10-16T08:37:55.918Z,99.90
2022-10-16T08:40:30.841Z,99.90
2022-10-16T08:43:15.220Z,99.90
2022-10-16T08:45:49.730Z,99.90
2022-10-16T08:48:21.254Z,99.90
2022-10-16T08:50:51.179Z,99.90
2022-10-16T08:53:29.574Z,99.90
2022-10-16T08:55:56.359Z,99.90
2022-10-16T08:58:27.425Z,99.90
2022-10-16T09:01:00.121Z,99.90
2022-10-16T09:03:44.760Z,99.90
2022-10-16T09:06:40.147Z,99.90
2022-10-16T09:09:19.864Z,99.90
2022-10-16T09:12:04.950Z,99.90
2022-10-16T09:14:51.862Z,99.90
2022-10-16T09:17:24.560Z,99.90
2022-10-16T09:19:58.565Z,99.90
2022-10-16T09:22:29.635Z,99.90
2022-10-16T09:25:01.546Z,99.90
2022-10-16T09:27:28.501Z,99.90
2022-10-16T09:29:58.897Z,99.90
2022-10-16T09:32:26.777Z,99.90
2022-10-16T09:34:57.318Z,99.90
2022-10-16T09:37:26.005Z,99.90
2022-10-16T09:39:55.066Z,99.90
2022-10-16T09:42:32.178Z,99.90
2022-10-16T09:44:59.190Z,99.90
2022-10-16T09:47:28.937Z,99.90
2022-10-16T09:50:02.381Z,99.90
2022-10-16T09:52:30.653Z,99.90
2022-10-16T09:55:02.574Z,99.90
2022-10-16T09:57:31.062Z,99.90
2022-10-16T09:59:59.266Z,99.90
2022-10-16T10:02:37.557Z,99.90
2022-10-16T10:05:06.587Z,99.90
2022-10-16T10:07:43.660Z,99.90
2022-10-16T10:10:31.722Z,99.90
2022-10-16T10:12:58.608Z,99.90
2022-10-16T10:15:27.682Z,99.90
2022-10-16T10:17:56.397Z,99.90
2022-10-16T10:20:36.003Z,99.90
2022-10-16T10:23:24.679Z,99.90
2022-10-16T10:26:05.622Z,99.90
2022-10-16T10:28:54.211Z,99.90
2022-10-16T10:31:39.547Z,99.90
2022-10-16T10:34:40.231Z,99.90
2022-10-16T10:37:36.216Z,99.90
2022-10-16T10:40:44.860Z,99.90
2022-10-16T10:43:34.500Z,99.90
2022-10-16T10:46:05.915Z,99.90
2022-10-16T10:48:55.319Z,99.90
2022-10-16T10:51:48.727Z,99.90
2022-10-16T10:54:31.167Z,99.90
2022-10-16T10:57:12.703Z,99.70
2022-10-16T11:00:18.300Z,99.30
2022-10-16T11:03:14.793Z,98.90
2022-10-16T11:05:46.822Z,98.40
2022-10-16T11:08:36.518Z,98.10
2022-10-16T11:11:25.409Z,98.50
2022-10-16T11:14:03.870Z,98.20
2022-10-16T11:16:37.835Z,98.00
2022-10-16T11:19:32.818Z,98.10
2022-10-16T11:22:23.900Z,98.00
2022-10-16T11:25:00.641Z,97.50
2022-10-16T11:27:51.304Z,97.50
2022-10-16T11:30:27.320Z,97.50
2022-10-16T11:33:04.458Z,97.40
2022-10-16T11:35:39.178Z,96.90
2022-10-16T11:38:16.936Z,96.80
2022-10-16T11:40:48.572Z,97.10
2022-10-16T11:43:26.423Z,96.60
2022-10-16T11:45:56.377Z,96.70
2022-10-16T11:48:25.843Z,96.50
2022-10-16T11:51:01.130Z,96.80
2022-10-16T11:53:40.270Z,97.10
2022-10-16T11:56:07.613Z,97.40
2022-10-16T11:58:40.382Z,97.40
2022-10-16T12:04:28.563Z,96.20
2022-10-16T12:07:09.268Z,95.90
2022-10-16T12:09:39.398Z,96.60
2022-10-16T12:12:24.681Z,96.60
2022-10-16T12:15:22.468Z,96.40
2022-10-16T12:17:57.477Z,96.50
2022-10-16T12:20:28.230Z,96.60
2022-10-16T12:23:04.695Z,96.20
2022-10-16T12:25:47.187Z,96.20
2022-10-16T12:28:16.708Z,96.10
2022-10-16T12:30:53.270Z,96.00
2022-10-16T12:33:27.105Z,95.80
2022-10-16T12:35:54.908Z,95.50
2022-10-16T12:38:34.884Z,95.40
2022-10-16T12:41:04.815Z,95.30
2022-10-16T12:43:43.621Z,95.20
2022-10-16T12:46:10.252Z,94.90
2022-10-16T12:48:49.017Z,95.10
2022-10-16T12:51:31.387Z,94.60
2022-10-16T12:54:31.600Z,94.30
2022-10-16T12:57:13.672Z,93.70
2022-10-16T13:00:02.342Z,94.10
2022-10-16T13:02:43.765Z,94.00
2022-10-16T13:08:26.814Z,94.30
2022-10-16T13:11:18.771Z,93.90
2022-10-16T13:14:28.337Z,93.80
2022-10-16T13:17:13.072Z,93.50
2022-10-16T13:20:04.078Z,93.40
2022-10-16T13:22:53.790Z,93.50
2022-10-16T13:25:26.263Z,93.40
2022-10-16T13:28:00.605Z,93.00
2022-10-16T13:30:32.636Z,93.10
2022-10-16T13:33:22.583Z,93.10
2022-10-16T13:35:57.226Z,93.40
2022-10-16T13:38:33.152Z,93.40
2022-10-16T13:41:14.339Z,93.60
2022-10-16T13:43:44.257Z,93.80
2022-10-16T13:46:19.489Z,93.80
2022-10-16T13:48:57.303Z,94.00
2022-10-16T13:53:58.082Z,94.10
2022-10-16T13:56:28.721Z,94.10
2022-10-16T13:59:07.444Z,94.30
2022-10-16T14:01:43.916Z,94.10
2022-10-16T14:04:13.246Z,93.70
2022-10-16T14:06:45.409Z,93.50
2022-10-16T14:09:27.683Z,93.30
2022-10-16T14:11:57.817Z,93.00
2022-10-16T14:14:25.446Z,92.80
2022-10-16T14:16:52.322Z,92.80
2022-10-16T14:19:26.035Z,92.70
2022-10-16T14:21:53.095Z,92.70
2022-10-16T14:24:27.525Z,92.80
2022-10-16T14:26:57.236Z,93.00
2022-10-16T14:29:25.311Z,93.00
2022-10-16T14:32:01.891Z,92.90
2022-10-16T14:34:31.382Z,92.90
2022-10-16T14:39:40.884Z,93.00
2022-10-16T14:42:17.059Z,93.10
2022-10-16T14:44:43.850Z,93.20
2022-10-16T14:47:15.071Z,93.50
2022-10-16T14:49:43.246Z,93.50
2022-10-16T14:52:11.968Z,93.30
2022-10-16T14:54:38.766Z,93.10
2022-10-16T14:57:06.068Z,93.00
2022-10-16T14:59:39.436Z,93.30
2022-10-16T15:02:45.014Z,93.30
2022-10-16T15:05:33.122Z,93.30
2022-10-16T15:07:59.745Z,93.00
2022-10-16T15:10:29.715Z,93.20
2022-10-16T15:12:56.333Z,93.40
2022-10-16T15:15:34.707Z,93.60
2022-10-16T15:18:02.151Z,93.70
2022-10-16T15:20:31.290Z,93.70
2022-10-16T15:22:58.533Z,93.90
2022-10-16T15:25:40.664Z,93.90
2022-10-16T15:28:08.078Z,94.10
2022-10-16T15:30:35.318Z,93.90
2022-10-16T15:33:02.348Z,94.00
2022-10-16T15:35:29.127Z,94.10
2022-10-16T15:37:55.722Z,94.10
2022-10-16T15:40:23.534Z,94.10
2022-10-16T15:42:50.314Z,94.20
2022-10-16T15:45:17.203Z,94.00
2022-10-16T15:47:45.855Z,94.30
2022-10-16T15:50:14.512Z,94.40
2022-10-16T15:52:42.094Z,94.30
2022-10-16T15:55:13.412Z,94.10
2022-10-16T15:57:41.639Z,94.20
2022-10-16T16:00:11.263Z,94.00
2022-10-16T16:02:37.958Z,94.00
2022-10-16T16:05:05.649Z,94.10
2022-10-16T16:07:36.328Z,94.30
2022-10-16T16:10:04.789Z,94.40
2022-10-16T16:12:31.457Z,94.50
2022-10-16T16:15:00.812Z,95.10
2022-10-16T16:17:31.956Z,95.10
2022-10-16T16:19:58.860Z,94.30
2022-10-16T16:22:26.274Z,94.60
2022-10-16T16:24:53.062Z,94.70
2022-10-16T16:27:20.800Z,93.70
2022-10-16T16:29:48.639Z,94.30
2022-10-16T16:32:15.379Z,93.90
2022-10-16T16:34:42.066Z,93.80
2022-10-16T16:37:08.746Z,94.00
2022-10-16T16:39:35.570Z,94.20
2022-10-16T16:42:03.959Z,94.20
2022-10-16T16:44:30.856Z,94.00
2022-10-16T16:46:57.520Z,94.20
2022-10-16T16:49:24.392Z,94.80
2022-10-16T16:51:51.047Z,94.60
2022-10-16T16:54:17.798Z,94.60
2022-10-16T16:56:45.277Z,94.50
2022-10-16T16:59:18.698Z,94.60
2022-10-16T17:01:45.565Z,94.60
2022-10-16T17:04:12.695Z,94.70
2022-10-16T17:06:39.777Z,94.90
2022-10-16T17:09:07.561Z,95.20
2022-10-16T17:11:35.088Z,94.70
2022-10-16T17:14:02.459Z,95.00
2022-10-16T17:16:32.427Z,95.70
2022-10-16T17:19:06.299Z,95.90
2022-10-16T17:21:33.519Z,96.10
2022-10-16T17:24:01.016Z,96.40
2022-10-16T17:26:28.325Z,96.60
2022-10-16T17:29:01.569Z,96.80
2022-10-16T17:31:31.400Z,96.70
2022-10-16T17:34:02.358Z,96.90
2022-10-16T17:36:32.981Z,96.90
2022-10-16T17:39:04.939Z,97.20
2022-10-16T17:41:32.624Z,97.40
2022-10-16T17:43:59.455Z,97.40
2022-10-16T17:46:26.969Z,97.50
2022-10-16T17:48:55.425Z,97.70
2022-10-16T17:51:25.466Z,97.00
2022-10-16T17:54:02.264Z,97.80
2022-10-16T17:56:29.880Z,97.80
2022-10-16T17:59:01.800Z,97.90
2022-10-16T18:01:31.425Z,98.10
2022-10-16T18:04:00.750Z,98.10
2022-10-16T18:06:28.763Z,98.30
2022-10-16T18:08:57.353Z,98.30
2022-10-16T18:11:24.362Z,98.50
2022-10-16T18:13:55.754Z,98.50
2022-10-16T18:16:22.977Z,98.70
2022-10-16T18:18:50.429Z,98.60
2022-10-16T18:21:19.425Z,98.80
2022-10-16T18:23:50.931Z,99.10
2022-10-16T18:26:18.446Z,99.50
2022-10-16T18:28:45.166Z,99.30
2022-10-16T18:31:15.195Z,99.60
2022-10-16T18:33:48.005Z,99.90
2022-10-16T18:36:15.548Z,99.90
2022-10-16T18:38:42.268Z,99.90
2022-10-16T18:41:09.197Z,99.90
2022-10-16T18:43:37.161Z,99.90
2022-10-16T18:46:06.525Z,99.90
2022-10-16T18:48:33.478Z,99.90
2022-10-16T18:51:12.743Z,99.90
2022-10-16T18:53:41.906Z,99.90
2022-10-16T18:56:08.586Z,99.90
2022-10-16T18:58:36.074Z,99.90
2022-10-16T19:01:05.097Z,99.90
2022-10-16T19:03:32.242Z,99.90
2022-10-16T19:06:04.347Z,99.90
2022-10-16T19:08:33.583Z,99.90
2022-10-16T19:11:13.936Z,99.90
2022-10-16T19:13:41.140Z,99.90
2022-10-16T19:16:20.191Z,99.90
2022-10-16T19:18:47.903Z,99.90
2022-10-16T19:21:14.902Z,99.90
2022-10-16T19:23:42.100Z,99.90
2022-10-16T19:26:14.745Z,99.90
2022-10-16T19:28:44.254Z,99.90
2022-10-16T19:31:13.832Z,99.90
2022-10-16T19:33:41.497Z,99.90
2022-10-16T19:36:14.341Z,99.90
2022-10-16T19:38:41.995Z,99.90
2022-10-16T19:41:10.900Z,99.90
2022-10-16T19:43:38.130Z,99.90
2022-10-16T19:46:17.123Z,99.90
2022-10-16T19:48:44.463Z,99.90
2022-10-16T19:51:14.733Z,99.90
2022-10-16T19:53:42.004Z,99.90
2022-10-16T19:56:17.725Z,99.90
2022-10-16T19:58:45.689Z,99.90
2022-10-16T20:01:13.689Z,99.90
2022-10-16T20:03:40.485Z,99.90
2022-10-16T20:06:09.108Z,99.90
2022-10-16T20:08:41.022Z,99.90
2022-10-16T20:11:15.177Z,99.90
2022-10-16T20:13:42.620Z,99.90
2022-10-16T20:16:10.603Z,99.90
2022-10-16T20:18:37.518Z,99.90
2022-10-16T20:21:10.073Z,99.90
2022-10-16T20:23:36.699Z,99.90
2022-10-16T20:26:04.331Z,99.90
2022-10-16T20:28:31.557Z,99.90
2022-10-16T20:30:58.359Z,99.90
2022-10-16T20:33:25.081Z,99.90
2022-10-16T20:35:51.825Z,99.90
2022-10-16T20:38:18.977Z,99.90
2022-10-16T20:40:47.538Z,99.90
2022-10-16T20:43:16.954Z,99.90
2022-10-16T20:45:44.775Z,99.90
2022-10-16T20:48:13.070Z,99.90
2022-10-16T20:50:41.428Z,99.90
2022-10-16T20:53:08.603Z,99.90
2022-10-16T20:55:38.231Z,99.90
2022-10-16T20:58:05.878Z,99.90
2022-10-16T21:00:32.609Z,99.90
2022-10-16T21:02:59.257Z,99.90
2022-10-16T21:05:29.900Z,99.90
2022-10-16T21:07:57.314Z,99.90
2022-10-16T21:10:24.401Z,99.90
2022-10-16T21:12:55.028Z,99.90
2022-10-16T21:15:22.094Z,99.90
2022-10-16T21:17:48.696Z,99.90
2022-10-16T21:20:15.424Z,99.90
2022-10-16T21:22:42.047Z,99.90
2022-10-16T21:25:08.954Z,99.90
2022-10-16T21:27:40.121Z,99.90
2022-10-16T21:30:09.065Z,99.90
2022-10-16T21:32:37.254Z,99.90
2022-10-16T21:35:05.547Z,99.90
2022-10-16T21:37:33.152Z,99.90
2022-10-16T21:39:59.840Z,99.90
2022-10-16T21:42:26.690Z,99.90
2022-10-16T21:44:53.441Z,99.90
2022-10-16T21:47:20.095Z,99.90
2022-10-16T21:49:46.735Z,99.90
2022-10-16T21:52:13.354Z,99.90
2022-10-16T21:54:39.972Z,99.90
2022-10-16T21:57:06.600Z,99.90
2022-10-16T21:59:33.249Z,99.90
2022-10-16T22:02:02.504Z,99.90
2022-10-16T22:04:29.133Z,99.90
2022-10-16T22:06:55.825Z,99.90
2022-10-16T22:09:22.422Z,99.90
2022-10-16T22:11:50.463Z,99.90
2022-10-16T22:14:19.327Z,99.90
2022-10-16T22:16:46.976Z,99.90
2022-10-16T22:19:15.749Z,99.90
2022-10-16T22:21:43.774Z,99.90
2022-10-16T22:24:10.504Z,99.90
2022-10-16T22:26:38.155Z,99.90
2022-10-16T22:29:05.780Z,99.90
2022-10-16T22:31:33.169Z,99.90
2022-10-16T22:34:01.891Z,99.90
2022-10-16T22:36:29.459Z,99.90
2022-10-16T22:38:56.402Z,99.90
2022-10-16T22:41:24.671Z,99.90
2022-10-16T22:43:51.861Z,99.90
2022-10-16T22:46:31.069Z,99.90
2022-10-16T22:48:58.328Z,99.90
2022-10-16T22:51:26.732Z,99.90
2022-10-16T22:53:53.666Z,99.90
2022-10-16T22:56:21.600Z,99.90
2022-10-16T22:58:48.547Z,99.90
2022-10-16T23:01:16.755Z,99.90
2022-10-16T23:03:43.430Z,99.90
2022-10-16T23:06:10.385Z,99.90
2022-10-16T23:08:37.558Z,99.90
2022-10-16T23:11:09.263Z,99.90
2022-10-16T23:13:37.299Z,99.90
2022-10-16T23:16:05.671Z,99.90
2022-10-16T23:18:34.571Z,99.90
2022-10-16T23:21:05.656Z,99.90
2022-10-16T23:23:32.276Z,99.90
2022-10-16T23:25:58.968Z,99.90
2022-10-16T23:28:25.609Z,99.90
2022-10-16T23:30:52.238Z,99.90
2022-10-16T23:33:18.829Z,99.90
2022-10-16T23:35:45.420Z,99.90
2022-10-16T23:38:12.192Z,99.90
2022-10-16T23:40:38.871Z,99.90
2022-10-16T23:43:05.477Z,99.90
2022-10-16T23:45:32.070Z,99.90
2022-10-16T23:47:58.728Z,99.90
2022-10-16T23:50:25.382Z,99.90
2022-10-16T23:52:52.005Z,99.90
2022-10-16T23:55:18.661Z,99.90
2022-10-16T23:57:45.335Z,99.90
